Time;durP1;ratioP1;P1;durP2;ratioP2;P2;SDS_P1;SDS_P2;PMS_P1;PMS_P2;Temp;Humidity;BMP_temperature;BMP_pressure;BME280_temperature;BME280_humidity;BME280_pressure;Samples;Min_cycle;Max_cycle;Signal;HPM_P1;HPM_P2
2024/01/05 00:00:11;;;;;;;;;;;;;;;6.24;54.71;97860.83;67519;1282;1017286;-73
2024/01/05 00:03:34;;;;;;;;;;;;;;;6.23;55.12;97849.38;67515;1282;1016484;-72
2024/01/05 00:06:37;;;;;;;;;;;;;;;6.20;55.10;97851.82;67540;1282;1016445;-72
2024/01/05 00:09:39;;;;;;;;;;;;;;;6.28;55.10;97854.17;67543;1282;1016475;-68
2024/01/05 00:12:42;;;;;;;;;;;;;;;6.22;54.52;97862.67;67552;1282;1016078;-72
2024/01/05 00:15:45;;;;;;;;;;;;;;;6.26;54.83;97864.00;67510;1282;1016436;-72
2024/01/05 00:18:48;;;;;;;;;;;;;;;6.24;54.78;97875.04;67536;1282;1016477;-73
2024/01/05 00:21:51;;;;;;;;;;;;;;;6.15;54.30;97889.09;67516;1282;1016316;-72
2024/01/05 00:24:54;;;;;;;;;;;;;;;6.14;53.83;97896.80;67528;1282;1016447;-70
2024/01/05 00:27:56;;;;;;;;;;;;;;;6.17;53.17;97895.25;67534;1282;1016271;-67
2024/01/05 00:30:59;;;;;;;;;;;;;;;6.21;53.38;97903.35;67527;1282;1016058;-70
2024/01/05 00:34:02;;;;;;;;;;;;;;;6.33;53.74;97909.59;67570;1282;1016494;-70
2024/01/05 00:37:05;;;;;;;;;;;;;;;6.29;53.61;97919.17;67552;1282;1016059;-73
2024/01/05 00:40:07;;;;;;;;;;;;;;;6.42;53.45;97913.80;67502;1282;1016847;-72
2024/01/05 00:43:10;;;;;;;;;;;;;;;6.59;52.86;97912.95;67539;1282;1016481;-73
2024/01/05 00:46:13;;;;;;;;;;;;;;;6.59;52.60;97919.19;67557;1282;1016469;-67
2024/01/05 00:49:16;;;;;;;;;;;;;;;6.64;52.44;97924.79;67497;1282;1016305;-68
2024/01/05 00:52:19;;;;;;;;;;;;;;;6.56;53.13;97925.47;67544;1282;1016392;-73
2024/01/05 00:55:22;;;;;;;;;;;;;;;6.49;53.00;97927.41;67505;1282;1016441;-73
2024/01/05 00:58:25;;;;;;;;;;;;;;;6.59;53.51;97922.36;67550;1282;1016351;-73
2024/01/05 01:01:27;;;;;;;;;;;;;;;6.56;53.05;97927.91;67541;1282;1016906;-68
2024/01/05 01:04:30;;;;;;;;;;;;;;;6.52;52.93;97931.59;67509;1282;1016214;-69
2024/01/05 01:07:33;;;;;;;;;;;;;;;6.42;52.98;97936.70;67549;1282;1016367;-72
2024/01/05 01:10:35;;;;;;;;;;;;;;;6.41;53.20;97935.20;67520;1282;1015948;-72
2024/01/05 01:13:38;;;;;;;;;;;;;;;6.46;53.49;97933.13;67531;1282;1016438;-71
2024/01/05 01:16:41;;;;;;;;;;;;;;;6.38;53.45;97939.68;67561;1282;1016074;-72
2024/01/05 01:19:43;;;;;;;;;;;;;;;6.36;53.57;97947.44;67556;1282;1016468;-72
2024/01/05 01:22:46;;;;;;;;;;;;;;;6.26;53.28;97947.83;67528;1282;1016680;-70
2024/01/05 01:25:49;;;;;;;;;;;;;;;6.46;53.51;97943.55;67559;1282;1016504;-72
2024/01/05 01:28:51;;;;;;;;;;;;;;;6.63;53.31;97936.17;67584;1282;1016434;-72
2024/01/05 01:31:54;;;;;;;;;;;;;;;6.56;53.06;97939.15;67509;1282;1016407;-72
2024/01/05 01:34:57;;;;;;;;;;;;;;;6.51;53.37;97935.80;67557;1282;1016458;-70
2024/01/05 01:38:00;;;;;;;;;;;;;;;6.63;53.19;97929.20;67585;1282;1016789;-72
2024/01/05 01:41:02;;;;;;;;;;;;;;;6.69;53.50;97929.57;67507;1282;1016438;-72
2024/01/05 01:44:05;;;;;;;;;;;;;;;6.59;53.59;97940.59;67565;1282;1016425;-71
2024/01/05 01:47:08;;;;;;;;;;;;;;;6.47;53.76;97945.10;67575;1282;1016017;-72
2024/01/05 01:50:10;;;;;;;;;;;;;;;6.49;54.29;97947.58;67526;1282;1016159;-69
2024/01/05 01:53:13;;;;;;;;;;;;;;;6.51;54.23;97951.46;67587;1282;1016469;-72
2024/01/05 01:56:16;;;;;;;;;;;;;;;6.49;54.10;97958.84;67561;1282;1016322;-72
2024/01/05 01:59:18;;;;;;;;;;;;;;;6.54;54.25;97949.89;67513;1282;1016425;-72
2024/01/05 02:02:21;;;;;;;;;;;;;;;6.54;54.07;97957.88;67526;1282;1016335;-73
2024/01/05 02:05:24;;;;;;;;;;;;;;;6.47;54.34;97966.45;67587;1282;1016394;-72
2024/01/05 02:08:26;;;;;;;;;;;;;;;6.38;55.54;97965.20;67518;1282;1016439;-68
2024/01/05 02:11:29;;;;;;;;;;;;;;;6.47;54.88;97967.50;67600;1282;1016421;-68
2024/01/05 02:14:32;;;;;;;;;;;;;;;6.57;54.75;97967.10;67595;1282;1016415;-71
2024/01/05 02:17:34;;;;;;;;;;;;;;;6.62;54.71;97973.23;67518;1282;1016445;-70
2024/01/05 02:20:37;;;;;;;;;;;;;;;6.58;54.76;97971.39;67594;1282;1016499;-68
2024/01/05 02:23:40;;;;;;;;;;;;;;;6.56;54.67;97955.86;67579;1282;1016493;-68
2024/01/05 02:26:42;;;;;;;;;;;;;;;6.49;55.10;97955.90;67531;1282;1016345;-72
2024/01/05 02:40:40;;;;;;;;;;;;;;;6.64;52.96;98010.82;67605;1282;1016554;-68
2024/01/05 02:44:00;;;;;;;;;;;;;;;6.49;53.19;98009.92;67551;1282;1016435;-72
2024/01/05 02:47:27;;;;;;;;;;;;;;;6.47;53.51;98013.50;67537;1282;1016405;-69
2024/01/05 02:50:30;;;;;;;;;;;;;;;6.19;52.04;98021.88;67601;1282;1016564;-72
2024/01/05 02:53:51;;;;;;;;;;;;;;;6.26;52.53;98021.80;67538;1282;1016457;-71
2024/01/05 03:00:32;;;;;;;;;;;;;;;6.29;52.44;98021.64;67571;1282;1017434;-68
2024/01/05 03:03:34;;;;;;;;;;;;;;;6.22;51.86;98030.19;67529;1282;1015958;-72
2024/01/05 03:06:37;;;;;;;;;;;;;;;6.24;52.21;98018.98;67538;1282;1016407;-67
2024/01/05 03:09:40;;;;;;;;;;;;;;;6.27;51.45;98037.38;67586;1282;1015938;-68
2024/01/05 03:12:42;;;;;;;;;;;;;;;6.36;51.32;98038.42;67578;1282;1016749;-69
2024/01/05 03:15:45;;;;;;;;;;;;;;;6.30;50.86;98036.33;67518;1282;1016025;-76
2024/01/05 03:18:48;;;;;;;;;;;;;;;6.23;50.94;98035.02;67588;1282;1016535;-72
2024/01/05 03:21:50;;;;;;;;;;;;;;;6.42;50.62;98033.78;67589;1282;1016347;-72
2024/01/05 03:24:53;;;;;;;;;;;;;;;6.42;50.33;98033.77;67549;1282;1016555;-67
2024/01/05 03:27:56;;;;;;;;;;;;;;;6.24;49.84;98048.66;67596;1282;1016395;-72
2024/01/05 03:30:58;;;;;;;;;;;;;;;6.37;50.22;98047.61;67561;1282;1016692;-69
2024/01/05 03:34:01;;;;;;;;;;;;;;;6.22;49.86;98060.20;67526;1282;1016302;-66
2024/01/05 03:37:04;;;;;;;;;;;;;;;6.22;50.27;98061.95;67567;1282;1016351;-72
2024/01/05 03:40:07;;;;;;;;;;;;;;;6.29;49.92;98057.92;67547;1282;1016535;-71
2024/01/05 03:43:10;;;;;;;;;;;;;;;6.22;49.85;98062.16;67553;1282;1016483;-72
2024/01/05 03:46:13;;;;;;;;;;;;;;;6.20;49.77;98069.90;67527;1282;1016420;-71
2024/01/05 03:49:15;;;;;;;;;;;;;;;6.17;48.46;98071.11;67546;1282;1016567;-70
2024/01/05 03:52:18;;;;;;;;;;;;;;;5.97;48.01;98072.02;67586;1282;1017088;-65
2024/01/05 03:55:21;;;;;;;;;;;;;;;6.14;47.96;98069.69;67547;1282;1016440;-72
2024/01/05 03:58:23;;;;;;;;;;;;;;;6.28;47.62;98069.79;67547;1282;1016303;-71
2024/01/05 04:01:26;;;;;;;;;;;;;;;6.13;47.09;98072.18;67601;1282;1016424;-72
2024/01/05 04:04:29;;;;;;;;;;;;;;;6.13;47.00;98069.91;67583;1282;1016467;-72
2024/01/05 04:07:31;;;;;;;;;;;;;;;6.07;46.95;98068.69;67528;1282;1015920;-71
2024/01/05 04:10:35;;;;;;;;;;;;;;;6.14;47.46;98071.96;67575;1282;1016513;-71
2024/01/05 04:13:37;;;;;;;;;;;;;;;6.21;46.82;98075.23;67550;1282;1016425;-67
2024/01/05 04:16:40;;;;;;;;;;;;;;;6.33;46.80;98076.47;67594;1282;1015988;-72
2024/01/05 04:19:43;;;;;;;;;;;;;;;6.43;46.72;98066.04;67567;1282;1016195;-67
2024/01/05 04:22:45;;;;;;;;;;;;;;;6.36;45.88;98085.20;67551;1282;1016697;-72
2024/01/05 04:25:48;;;;;;;;;;;;;;;6.29;46.42;98085.52;67587;1282;1016342;-70
2024/01/05 04:28:51;;;;;;;;;;;;;;;6.51;46.87;98081.88;67588;1282;1016384;-72
2024/01/05 04:31:54;;;;;;;;;;;;;;;6.41;46.40;98096.36;67541;1282;1016437;-71
2024/01/05 04:34:56;;;;;;;;;;;;;;;6.35;46.68;98093.06;67572;1282;1016453;-72
2024/01/05 04:37:59;;;;;;;;;;;;;;;6.39;46.34;98102.20;67574;1282;1016358;-72
2024/01/05 04:41:02;;;;;;;;;;;;;;;6.48;46.51;98099.46;67523;1282;1016493;-71
2024/01/05 04:44:05;;;;;;;;;;;;;;;6.48;46.62;98107.23;67597;1282;1016194;-71
2024/01/05 04:47:07;;;;;;;;;;;;;;;6.52;45.73;98113.64;67524;1282;1016221;-70
2024/01/05 04:50:10;;;;;;;;;;;;;;;6.54;46.86;98120.99;67545;1282;1016184;-72
2024/01/05 04:53:13;;;;;;;;;;;;;;;6.54;46.34;98123.95;67599;1282;1016400;-71
2024/01/05 04:56:16;;;;;;;;;;;;;;;6.49;45.86;98133.57;67528;1282;1015970;-71
2024/01/05 04:59:18;;;;;;;;;;;;;;;6.25;44.58;98131.41;67575;1282;1016377;-69
2024/01/05 05:02:21;;;;;;;;;;;;;;;6.13;44.45;98136.42;67529;1282;1016108;-68
2024/01/05 05:05:25;;;;;;;;;;;;;;;5.83;44.67;98148.55;67525;1282;1018420;-72
2024/01/05 05:08:28;;;;;;;;;;;;;;;5.77;45.47;98145.04;67544;1282;1016377;-69
2024/01/05 05:11:30;;;;;;;;;;;;;;;5.89;44.91;98146.33;67602;1282;1016338;-71
2024/01/05 05:14:33;;;;;;;;;;;;;;;5.92;45.10;98144.40;67567;1282;1016229;-71
2024/01/05 05:17:36;;;;;;;;;;;;;;;6.02;44.47;98146.04;67574;1282;1016229;-69
2024/01/05 05:20:39;;;;;;;;;;;;;;;6.04;44.66;98145.54;67559;1282;1016197;-71
2024/01/05 05:23:42;;;;;;;;;;;;;;;6.00;44.72;98142.27;67526;1282;1016028;-71
2024/01/05 05:26:44;;;;;;;;;;;;;;;6.16;45.09;98147.54;67572;1282;1016459;-71
2024/01/05 05:29:47;;;;;;;;;;;;;;;6.15;43.88;98151.41;67551;1282;1016165;-68
2024/01/05 05:32:50;;;;;;;;;;;;;;;6.06;42.77;98162.27;67502;1282;1016374;-71
2024/01/05 05:35:52;;;;;;;;;;;;;;;5.91;41.98;98168.64;67586;1282;1016262;-71
2024/01/05 05:38:55;;;;;;;;;;;;;;;5.96;42.65;98167.14;67554;1282;1016423;-70
2024/01/05 05:41:58;;;;;;;;;;;;;;;5.88;42.00;98173.08;67546;1282;1016111;-67
2024/01/05 05:45:00;;;;;;;;;;;;;;;5.89;42.46;98184.83;67593;1282;1016439;-70
2024/01/05 05:48:04;;;;;;;;;;;;;;;5.93;42.52;98191.06;67547;1282;1016178;-68
2024/01/05 05:51:07;;;;;;;;;;;;;;;5.85;41.62;98197.91;67583;1282;1016455;-70
2024/01/05 05:54:09;;;;;;;;;;;;;;;5.74;41.42;98210.61;67555;1282;1016343;-69
2024/01/05 05:57:12;;;;;;;;;;;;;;;5.62;41.46;98211.02;67538;1282;1016216;-70
2024/01/05 06:00:15;;;;;;;;;;;;;;;5.51;40.70;98211.23;67601;1282;1016460;-71
2024/01/05 06:03:18;;;;;;;;;;;;;;;5.85;40.93;98201.38;67541;1282;1016326;-65
2024/01/05 06:06:22;;;;;;;;;;;;;;;5.78;40.69;98201.40;67526;1282;1018910;-70
2024/01/05 06:09:24;;;;;;;;;;;;;;;5.81;41.30;98201.55;67515;1282;1016471;-71
2024/01/05 06:12:27;;;;;;;;;;;;;;;5.87;41.76;98206.80;67596;1282;1016320;-67
2024/01/05 06:15:30;;;;;;;;;;;;;;;5.92;42.19;98205.52;67572;1282;1016405;-70
2024/01/05 06:18:32;;;;;;;;;;;;;;;6.02;42.65;98210.58;67525;1282;1016475;-71
2024/01/05 06:21:35;;;;;;;;;;;;;;;6.12;42.22;98215.29;67607;1282;1016317;-69
2024/01/05 06:24:38;;;;;;;;;;;;;;;6.12;41.91;98217.02;67551;1282;1016060;-71
2024/01/05 06:27:40;;;;;;;;;;;;;;;6.06;41.80;98222.00;67520;1282;1016353;-69
2024/01/05 06:30:43;;;;;;;;;;;;;;;6.15;42.37;98220.86;67587;1282;1016536;-71
2024/01/05 06:33:46;;;;;;;;;;;;;;;6.23;42.83;98219.40;67547;1282;1016428;-71
2024/01/05 06:36:49;;;;;;;;;;;;;;;6.33;42.70;98218.20;67538;1282;1016288;-66
2024/01/05 06:39:51;;;;;;;;;;;;;;;6.32;42.62;98222.05;67588;1282;1017363;-70
2024/01/05 06:42:56;;;;;;;;;;;;;;;6.32;42.60;98218.20;67573;1282;1016471;-71
2024/01/05 06:45:58;;;;;;;;;;;;;;;6.37;43.17;98211.38;67542;1282;1016385;-71
2024/01/05 06:49:01;;;;;;;;;;;;;;;6.30;42.77;98211.91;67546;1282;1018337;-71
2024/01/05 06:52:04;;;;;;;;;;;;;;;6.22;42.31;98209.20;67591;1282;1016284;-69
2024/01/05 06:55:07;;;;;;;;;;;;;;;6.16;43.16;98213.14;67540;1282;1016412;-70
2024/01/05 06:58:09;;;;;;;;;;;;;;;6.28;43.58;98213.20;67543;1282;1016409;-70
2024/01/05 07:01:12;;;;;;;;;;;;;;;6.46;42.27;98214.02;67576;1282;1016270;-69
2024/01/05 07:04:15;;;;;;;;;;;;;;;6.35;41.61;98209.36;67578;1282;1016041;-71
2024/01/05 07:07:17;;;;;;;;;;;;;;;6.32;41.57;98213.38;67547;1282;1016490;-71
2024/01/05 07:10:20;;;;;;;;;;;;;;;6.26;41.26;98206.89;67561;1282;1016430;-70
2024/01/05 07:13:23;;;;;;;;;;;;;;;6.29;41.50;98199.97;67571;1282;1016519;-71
2024/01/05 07:16:25;;;;;;;;;;;;;;;6.50;41.13;98192.39;67521;1282;1016443;-70
2024/01/05 07:19:28;;;;;;;;;;;;;;;6.66;41.64;98192.60;67577;1282;1016411;-72
2024/01/05 07:22:31;;;;;;;;;;;;;;;6.61;40.86;98186.81;67602;1282;1015899;-69
2024/01/05 07:25:33;;;;;;;;;;;;;;;6.75;40.73;98184.80;67542;1282;1016002;-70
2024/01/05 07:28:36;;;;;;;;;;;;;;;6.78;40.98;98175.59;67594;1282;1018596;-69
2024/01/05 07:31:39;;;;;;;;;;;;;;;6.73;40.52;98175.36;67598;1282;1015912;-68
2024/01/05 07:34:41;;;;;;;;;;;;;;;6.80;40.07;98175.85;67546;1282;1016414;-71
2024/01/05 07:37:46;;;;;;;;;;;;;;;6.96;39.85;98185.39;67554;1282;1016402;-64
2024/01/05 07:40:48;;;;;;;;;;;;;;;6.90;40.26;98167.62;67569;1282;1016252;-69
2024/01/05 07:43:51;;;;;;;;;;;;;;;6.84;39.88;98171.45;67582;1282;1016196;-67
2024/01/05 07:46:54;;;;;;;;;;;;;;;6.87;40.44;98169.04;67537;1282;1016504;-70
2024/01/05 07:49:57;;;;;;;;;;;;;;;6.90;40.47;98178.73;67587;1282;1016419;-67
2024/01/05 07:52:59;;;;;;;;;;;;;;;6.97;40.10;98175.92;67565;1282;1016577;-68
2024/01/05 07:56:02;;;;;;;;;;;;;;;7.11;39.92;98174.08;67521;1282;1016423;-70
2024/01/05 07:59:05;;;;;;;;;;;;;;;6.84;40.07;98173.85;67579;1282;1016510;-70
2024/01/05 08:02:10;;;;;;;;;;;;;;;6.84;40.28;98185.31;67555;1282;1016266;-71
2024/01/05 08:05:14;;;;;;;;;;;;;;;6.95;40.09;98172.90;67565;1282;1016412;-72
2024/01/05 08:08:16;;;;;;;;;;;;;;;7.01;39.92;98186.99;67576;1282;1016307;-70
2024/01/05 08:11:19;;;;;;;;;;;;;;;6.78;39.56;98190.19;67596;1282;1016260;-69
2024/01/05 08:14:22;;;;;;;;;;;;;;;6.63;38.89;98192.77;67595;1282;1016066;-70
2024/01/05 08:17:24;;;;;;;;;;;;;;;6.55;39.79;98210.54;67550;1282;1016370;-70
2024/01/05 08:20:27;;;;;;;;;;;;;;;6.66;39.61;98211.18;67618;1282;1016475;-69
2024/01/05 08:23:30;;;;;;;;;;;;;;;6.93;39.94;98218.92;67577;1282;1016787;-70
2024/01/05 08:26:33;;;;;;;;;;;;;;;7.22;40.00;98216.92;67534;1282;1016210;-66
2024/01/05 08:29:35;;;;;;;;;;;;;;;7.37;40.02;98212.59;67592;1282;1016187;-67
2024/01/05 08:32:38;;;;;;;;;;;;;;;7.41;39.51;98210.61;67556;1282;1016485;-70
2024/01/05 08:35:41;;;;;;;;;;;;;;;7.51;39.72;98206.42;67544;1282;1016498;-67
2024/01/05 08:38:43;;;;;;;;;;;;;;;7.73;39.43;98213.15;67585;1282;1016466;-69
2024/01/05 08:41:46;;;;;;;;;;;;;;;7.77;39.26;98214.96;67618;1282;1016498;-69
2024/01/05 08:44:50;;;;;;;;;;;;;;;7.90;39.86;98208.48;67550;1282;1016482;-70
2024/01/05 08:47:53;;;;;;;;;;;;;;;7.95;39.40;98210.79;67577;1282;1016023;-70
2024/01/05 08:50:56;;;;;;;;;;;;;;;8.14;39.90;98215.02;67570;1282;1016497;-71
2024/01/05 08:54:01;;;;;;;;;;;;;;;8.31;39.45;98221.01;67528;1282;1016317;-67
2024/01/05 08:57:06;;;;;;;;;;;;;;;8.30;38.82;98231.48;67595;1282;1016482;-69
2024/01/05 09:00:10;;;;;;;;;;;;;;;8.05;38.71;98231.27;67598;1282;1016117;-66
2024/01/05 09:03:13;;;;;;;;;;;;;;;8.27;39.49;98221.03;67540;1282;1016428;-68
2024/01/05 09:06:16;;;;;;;;;;;;;;;8.32;38.48;98235.92;67550;1282;1016210;-66
2024/01/05 09:09:19;;;;;;;;;;;;;;;8.31;39.01;98233.35;67557;1282;1016508;-63
2024/01/05 09:12:21;;;;;;;;;;;;;;;8.27;38.51;98239.31;67590;1282;1016526;-68
2024/01/05 09:15:24;;;;;;;;;;;;;;;8.31;39.28;98237.91;67605;1282;1016295;-71
2024/01/05 09:18:27;;;;;;;;;;;;;;;8.46;39.21;98239.43;67560;1282;1015761;-69
2024/01/05 09:21:30;;;;;;;;;;;;;;;8.76;39.10;98242.29;67580;1282;1016372;-69
2024/01/05 09:24:33;;;;;;;;;;;;;;;8.95;38.81;98245.81;64980;1282;5377488;-68
2024/01/05 09:27:35;;;;;;;;;;;;;;;8.82;38.62;98249.58;67566;1282;1016475;-67
2024/01/05 09:30:38;;;;;;;;;;;;;;;9.01;39.01;98251.54;67577;1282;1016445;-69
2024/01/05 09:33:41;;;;;;;;;;;;;;;9.29;39.19;98254.31;67551;1282;1018460;-67
2024/01/05 09:36:53;;;;;;;;;;;;;;;9.46;38.64;98260.14;67545;1282;1016243;-69
2024/01/05 09:39:56;;;;;;;;;;;;;;;9.54;38.28;98262.77;67587;1282;1016940;-69
2024/01/05 09:43:02;;;;;;;;;;;;;;;9.63;38.09;98258.70;67540;1282;1016371;-67
2024/01/05 09:46:05;;;;;;;;;;;;;;;9.60;38.50;98271.45;67551;1282;1016474;-70
2024/01/05 09:49:08;;;;;;;;;;;;;;;9.62;37.87;98274.85;67595;1282;1015988;-66
2024/01/05 09:52:11;;;;;;;;;;;;;;;9.68;37.63;98268.67;67552;1282;1016397;-68
2024/01/05 09:55:14;;;;;;;;;;;;;;;9.49;37.40;98265.35;67603;1282;1016443;-64
2024/01/05 09:58:17;;;;;;;;;;;;;;;9.50;38.69;98252.71;67528;1282;1016417;-71
2024/01/05 10:01:21;;;;;;;;;;;;;;;9.65;37.80;98244.23;67599;1282;1016452;-67
2024/01/05 10:04:23;;;;;;;;;;;;;;;9.72;37.92;98243.13;67566;1282;1016417;-68
2024/01/05 10:07:26;;;;;;;;;;;;;;;9.99;37.81;98238.65;67594;1282;1016469;-66
2024/01/05 10:10:29;;;;;;;;;;;;;;;10.15;37.81;98239.36;67529;1282;1016854;-67
2024/01/05 10:13:32;;;;;;;;;;;;;;;10.25;37.64;98235.16;67597;1282;1016912;-71
2024/01/05 10:16:37;;;;;;;;;;;;;;;10.23;37.72;98229.89;67586;1282;1018448;-70
2024/01/05 10:19:41;;;;;;;;;;;;;;;10.23;36.87;98224.42;67533;1282;1017929;-71
2024/01/05 10:22:46;;;;;;;;;;;;;;;10.02;37.18;98221.34;67574;1282;1016854;-68
2024/01/05 10:25:51;;;;;;;;;;;;;;;10.02;37.36;98212.98;67510;1282;1016511;-67
2024/01/05 10:28:54;;;;;;;;;;;;;;;10.13;37.61;98212.73;67544;1282;1016067;-69
2024/01/05 10:31:56;;;;;;;;;;;;;;;9.92;36.04;98211.02;67597;1282;1016483;-68
2024/01/05 10:34:59;;;;;;;;;;;;;;;9.93;37.46;98211.52;67548;1282;1016582;-71
2024/01/05 10:38:03;;;;;;;;;;;;;;;9.94;36.82;98214.55;67527;1282;1016332;-69
2024/01/05 10:41:05;;;;;;;;;;;;;;;9.70;37.00;98209.04;67577;1282;1016420;-70
2024/01/05 10:44:08;;;;;;;;;;;;;;;9.67;36.93;98213.07;67531;1282;1018582;-71
2024/01/05 10:47:11;;;;;;;;;;;;;;;9.57;37.72;98224.88;67574;1282;1016052;-71
2024/01/05 10:50:13;;;;;;;;;;;;;;;9.56;37.86;98229.83;67588;1282;1016307;-70
2024/01/05 10:53:16;;;;;;;;;;;;;;;9.56;37.75;98231.58;67559;1282;1016346;-70
2024/01/05 10:56:19;;;;;;;;;;;;;;;9.38;37.68;98223.50;67612;1282;1015906;-66
2024/01/05 10:59:22;;;;;;;;;;;;;;;9.40;37.80;98217.27;67586;1282;1016666;-69
2024/01/05 11:02:25;;;;;;;;;;;;;;;9.50;38.09;98211.77;67600;1282;1016488;-69
2024/01/05 11:05:27;;;;;;;;;;;;;;;9.66;37.99;98213.84;67593;1282;1016360;-65
2024/01/05 11:08:30;;;;;;;;;;;;;;;9.85;38.20;98223.21;67552;1282;1016695;-64
2024/01/05 11:11:33;;;;;;;;;;;;;;;9.99;38.16;98220.52;67612;1282;1016464;-68
2024/01/05 11:14:36;;;;;;;;;;;;;;;10.14;37.71;98213.56;67570;1282;1017151;-70
2024/01/05 11:17:40;;;;;;;;;;;;;;;10.02;37.59;98206.81;67575;1282;1018051;-71
2024/01/05 11:20:42;;;;;;;;;;;;;;;9.96;38.15;98206.01;67558;1282;1016422;-69
2024/01/05 11:23:45;;;;;;;;;;;;;;;10.05;38.16;98204.58;67611;1282;1018084;-67
2024/01/05 11:26:48;;;;;;;;;;;;;;;10.34;37.95;98209.38;67615;1282;1016376;-71
2024/01/05 11:29:51;;;;;;;;;;;;;;;10.39;38.22;98214.81;67554;1282;1016427;-69
2024/01/05 11:32:53;;;;;;;;;;;;;;;10.34;38.02;98211.46;67595;1282;1016481;-70
2024/01/05 11:35:56;;;;;;;;;;;;;;;10.40;37.60;98214.05;67547;1282;1016318;-70
2024/01/05 11:38:59;;;;;;;;;;;;;;;10.33;37.56;98216.14;67554;1282;1016531;-65
2024/01/05 11:42:02;;;;;;;;;;;;;;;10.34;37.46;98206.27;67539;1282;1016426;-69
2024/01/05 11:45:05;;;;;;;;;;;;;;;10.21;37.29;98208.34;67538;1282;1018263;-70
2024/01/05 11:48:08;;;;;;;;;;;;;;;10.02;37.51;98210.17;67588;1282;1016513;-69
2024/01/05 11:51:10;;;;;;;;;;;;;;;9.93;37.73;98209.04;67560;1282;1016951;-70
2024/01/05 11:54:13;;;;;;;;;;;;;;;9.87;37.64;98209.27;67578;1282;1016201;-69
2024/01/05 11:57:16;;;;;;;;;;;;;;;9.78;37.81;98212.33;67573;1282;1016672;-71
2024/01/05 12:00:19;;;;;;;;;;;;;;;9.74;37.95;98210.31;67539;1282;1016508;-71
2024/01/05 12:03:24;;;;;;;;;;;;;;;9.81;37.86;98202.83;67513;1282;1016099;-71
2024/01/05 12:06:29;;;;;;;;;;;;;;;9.88;37.44;98195.94;67591;1282;1016422;-69
2024/01/05 12:09:32;;;;;;;;;;;;;;;9.75;37.72;98194.23;67544;1282;1016277;-65
2024/01/05 12:12:39;;;;;;;;;;;;;;;9.70;37.48;98187.67;67540;1282;1015959;-72
2024/01/05 12:15:42;;;;;;;;;;;;;;;9.68;37.50;98191.53;67584;1282;1016874;-68
2024/01/05 12:18:45;;;;;;;;;;;;;;;9.63;37.31;98190.65;67546;1282;1016966;-70
2024/01/05 12:21:48;;;;;;;;;;;;;;;9.79;37.94;98187.64;67584;1282;1018996;-71
2024/01/05 12:24:51;;;;;;;;;;;;;;;9.92;37.45;98181.00;67538;1282;1016147;-66
2024/01/05 12:27:53;;;;;;;;;;;;;;;9.91;38.06;98181.95;67568;1282;1016235;-69
2024/01/05 12:30:56;;;;;;;;;;;;;;;9.95;37.63;98169.92;67569;1282;1016383;-68
2024/01/05 12:34:00;;;;;;;;;;;;;;;9.64;37.92;98162.08;67555;1282;1016544;-68
2024/01/05 12:37:03;;;;;;;;;;;;;;;9.60;38.23;98157.13;67512;1282;1016536;-71
2024/01/05 12:40:08;;;;;;;;;;;;;;;9.61;38.11;98168.59;67579;1282;1016366;-67
2024/01/05 12:43:12;;;;;;;;;;;;;;;9.55;38.58;98171.58;67560;1282;1016235;-70
2024/01/05 12:46:15;;;;;;;;;;;;;;;9.58;38.47;98174.17;67565;1282;1016343;-64
2024/01/05 12:49:18;;;;;;;;;;;;;;;9.62;38.29;98179.38;67564;1282;1016440;-67
2024/01/05 12:52:20;;;;;;;;;;;;;;;9.71;38.40;98168.42;67576;1282;1016497;-67
2024/01/05 12:55:23;;;;;;;;;;;;;;;9.69;38.40;98169.96;67525;1282;1018392;-67
2024/01/05 12:58:26;;;;;;;;;;;;;;;9.60;38.40;98161.98;67569;1282;1016059;-71
2024/01/05 13:01:29;;;;;;;;;;;;;;;9.40;38.39;98168.80;67592;1282;1015845;-70
2024/01/05 13:04:31;;;;;;;;;;;;;;;9.30;38.68;98168.19;67537;1282;1016243;-71
2024/01/05 13:07:34;;;;;;;;;;;;;;;9.38;39.11;98161.39;67588;1282;1016056;-70
2024/01/05 13:10:37;;;;;;;;;;;;;;;9.50;39.01;98153.80;67586;1282;1016712;-67
2024/01/05 13:13:41;;;;;;;;;;;;;;;9.55;38.57;98151.68;67572;1282;1016639;-71
2024/01/05 13:16:43;;;;;;;;;;;;;;;9.64;38.84;98150.39;67540;1282;1016400;-68
2024/01/05 13:19:46;;;;;;;;;;;;;;;9.72;38.61;98142.52;67583;1282;1016070;-68
2024/01/05 13:22:49;;;;;;;;;;;;;;;9.71;38.69;98145.57;67539;1282;1016989;-71
2024/01/05 13:25:51;;;;;;;;;;;;;;;9.76;38.73;98142.10;67550;1282;1016368;-70
2024/01/05 13:28:55;;;;;;;;;;;;;;;9.72;38.50;98138.16;67593;1282;1016407;-70
2024/01/05 13:31:58;;;;;;;;;;;;;;;9.70;38.51;98136.02;67531;1282;1018318;-63
2024/01/05 13:35:00;;;;;;;;;;;;;;;9.54;38.11;98143.75;67585;1282;1016416;-67
2024/01/05 13:38:03;;;;;;;;;;;;;;;9.36;38.54;98152.45;67525;1282;1016923;-70
2024/01/05 13:41:06;;;;;;;;;;;;;;;9.17;38.39;98151.23;67563;1282;1017847;-71
2024/01/05 13:44:09;;;;;;;;;;;;;;;9.08;38.33;98146.78;67574;1282;1015998;-68
2024/01/05 13:47:11;;;;;;;;;;;;;;;8.98;38.59;98141.65;67528;1282;1016298;-67
2024/01/05 13:50:15;;;;;;;;;;;;;;;8.87;38.69;98141.19;67564;1282;1016019;-69
2024/01/05 13:53:17;;;;;;;;;;;;;;;8.77;39.14;98144.45;67541;1282;1016446;-68
2024/01/05 13:56:20;;;;;;;;;;;;;;;8.80;39.24;98142.87;67554;1282;1016426;-69
2024/01/05 13:59:23;;;;;;;;;;;;;;;8.94;39.37;98138.84;67544;1282;1016029;-71
2024/01/05 14:02:26;;;;;;;;;;;;;;;9.11;39.21;98130.03;67581;1282;1016507;-71
2024/01/05 14:05:29;;;;;;;;;;;;;;;9.25;38.96;98122.14;67562;1282;1017493;-71
2024/01/05 14:08:32;;;;;;;;;;;;;;;9.32;39.15;98121.52;67545;1282;1016457;-66
2024/01/05 14:11:35;;;;;;;;;;;;;;;9.28;38.70;98112.85;67539;1282;1019122;-70
2024/01/05 14:14:38;;;;;;;;;;;;;;;9.18;38.82;98119.32;67554;1283;1016475;-71
2024/01/05 14:17:41;;;;;;;;;;;;;;;9.09;38.58;98120.77;67596;1282;1015906;-71
2024/01/05 14:20:43;;;;;;;;;;;;;;;9.12;39.21;98125.60;67540;1282;1016672;-70
2024/01/05 14:23:53;;;;;;;;;;;;;;;9.08;39.03;98126.75;67519;1282;1016505;-66
2024/01/05 14:26:56;;;;;;;;;;;;;;;8.97;39.36;98125.18;67577;1282;1019581;-66
2024/01/05 14:29:59;;;;;;;;;;;;;;;8.98;39.51;98127.56;67595;1282;1016502;-71
2024/01/05 14:33:01;;;;;;;;;;;;;;;8.90;39.46;98121.31;67541;1282;1016394;-70
2024/01/05 14:36:04;;;;;;;;;;;;;;;8.83;39.64;98124.69;67537;1282;1017193;-66
2024/01/05 14:39:09;;;;;;;;;;;;;;;8.95;39.74;98124.80;67528;1282;1015947;-69
2024/01/05 14:42:12;;;;;;;;;;;;;;;8.96;39.60;98118.79;67573;1282;1016681;-67
2024/01/05 14:45:15;;;;;;;;;;;;;;;8.88;39.70;98116.20;67574;1282;1016088;-67
2024/01/05 14:48:20;;;;;;;;;;;;;;;8.99;39.46;98110.77;67529;1282;1016429;-65
2024/01/05 14:51:23;;;;;;;;;;;;;;;8.81;39.60;98109.64;67572;1282;1016488;-66
2024/01/05 14:54:26;;;;;;;;;;;;;;;8.67;39.87;98105.14;67578;1282;1016414;-64
2024/01/05 14:57:29;;;;;;;;;;;;;;;8.55;39.89;98096.83;67571;1282;1016425;-63
2024/01/05 15:00:32;;;;;;;;;;;;;;;8.26;40.30;98091.50;67588;1282;1016450;-67
2024/01/05 15:03:36;;;;;;;;;;;;;;;8.09;40.53;98093.80;67583;1282;1016405;-66
2024/01/05 15:06:39;;;;;;;;;;;;;;;7.95;40.57;98088.23;67552;1282;1016404;-70
2024/01/05 15:09:42;;;;;;;;;;;;;;;7.91;40.81;98089.52;67536;1282;1016216;-67
2024/01/05 15:12:45;;;;;;;;;;;;;;;7.97;40.88;98102.23;67571;1282;1016808;-69
2024/01/05 15:15:49;;;;;;;;;;;;;;;8.09;40.77;98106.34;67542;1282;1016746;-61
2024/01/05 15:18:52;;;;;;;;;;;;;;;8.14;40.95;98106.03;67564;1282;1016415;-70
2024/01/05 15:21:55;;;;;;;;;;;;;;;8.10;40.86;98102.29;67517;1282;1016486;-67
2024/01/05 15:24:58;;;;;;;;;;;;;;;8.17;40.84;98107.60;67529;1282;1016571;-66
2024/01/05 15:28:02;;;;;;;;;;;;;;;8.26;40.83;98116.59;67568;1282;1016503;-69
2024/01/05 15:31:05;;;;;;;;;;;;;;;8.30;40.91;98115.99;67533;1282;1016582;-66
2024/01/05 15:34:07;;;;;;;;;;;;;;;8.40;40.88;98112.39;67597;1282;1016511;-67
2024/01/05 15:37:10;;;;;;;;;;;;;;;8.37;41.03;98106.52;67527;1282;1016372;-70
2024/01/05 15:40:14;;;;;;;;;;;;;;;8.34;40.94;98101.47;67531;1282;1016499;-66
2024/01/05 15:43:17;;;;;;;;;;;;;;;8.30;41.01;98100.30;67573;1282;1015922;-67
2024/01/05 15:46:20;;;;;;;;;;;;;;;8.28;41.03;98091.02;67536;1282;1016457;-63
2024/01/05 15:49:24;;;;;;;;;;;;;;;8.25;41.10;98088.61;67534;1282;1016462;-67
2024/01/05 15:52:27;;;;;;;;;;;;;;;8.28;41.00;98089.34;67516;1282;1016379;-69